Mattituck, New York
Current Conditions -  °F | °C
As of 12:53 AM on Sunday 26 Oct 2014 (Local Time) from KFOK Reporting Station
Few Clouds Few Clouds  
Wind Chill: 61°   Ceiling: Unl
Heat Index: 61°   Visibility: 10mi
Dew Point: 47°   Wind: 15mph
Humidity: 60%   Direction: 250°WSW
Pressure: 29.55"   Gusts: 24mph
Location:  40.99°N, 72.53°W
Report Text: KFOK 260453Z 25013G21KT 10SM FEW110 16/08 A2955 RMK AO2 SLP005 T01610083 401940033
Loading
Personal Weather Stations






























Interactive Weather Map New forecast layout! Learn more

10-Day Weather Forecast

Advertisements
Track Severe Weather on mobile